Terminal Aerodrome Forecast
Issued by NWS Cleveland, OH

Home | Current Version | Previous Version | Text Only | Print | Product List | Glossary On
Versions: 1 2 3 4 5 6 7 8 9 10 11 12 13 14 15 16 17 18 19
000
FTUS41 KCLE 292300
TAFERI
TAF
KERI 292338Z 3000/3024 19020G30KT P6SM OVC100
     FM300300 19015G30KT P6SM -SHRASN OVC050
     FM300800 22015G28KT 6SM -SHRASN OVC025
     FM301400 27015G25KT P6SM VCSH OVC025=

USA.gov is the U.S. government's official web portal to all federal, state and local government web resources and services.